sensor_id;sensor_type;location;lat;lon;timestamp;temperature;humidity
48936;DHT22;34745;52.276;10.528;2023-03-21T00:00:59;8.20;99.90
48936;DHT22;34745;52.276;10.528;2023-03-21T00:03:30;8.20;99.90
48936;DHT22;34745;52.276;10.528;2023-03-21T00:05:57;8.20;99.90
48936;DHT22;34745;52.276;10.528;2023-03-21T00:08:25;8.20;99.90
48936;DHT22;34745;52.276;10.528;2023-03-21T00:10:57;8.20;99.90
48936;DHT22;34745;52.276;10.528;2023-03-21T00:13:25;8.30;99.90
48936;DHT22;34745;52.276;10.528;2023-03-21T00:15:55;8.30;99.90
48936;DHT22;34745;52.276;10.528;2023-03-21T00:18:36;8.30;99.90
48936;DHT22;34745;52.276;10.528;2023-03-21T00:21:11;8.20;99.90
48936;DHT22;34745;52.276;10.528;2023-03-21T00:23:59;8.20;99.90
48936;DHT22;34745;52.276;10.528;2023-03-21T00:26:27;8.20;99.90
48936;DHT22;34745;52.276;10.528;2023-03-21T00:28:55;8.20;99.90
48936;DHT22;34745;52.276;10.528;2023-03-21T00:31:26;8.20;99.90
48936;DHT22;34745;52.276;10.528;2023-03-21T00:33:53;8.20;99.90
48936;DHT22;34745;52.276;10.528;2023-03-21T00:36:21;8.10;99.90
48936;DHT22;34745;52.276;10.528;2023-03-21T00:38:52;8.10;99.90
48936;DHT22;34745;52.276;10.528;2023-03-21T00:41:19;8.10;99.90
48936;DHT22;34745;52.276;10.528;2023-03-21T00:44:06;8.10;99.90
48936;DHT22;34745;52.276;10.528;2023-03-21T00:46:35;8.00;99.90
48936;DHT22;34745;52.276;10.528;2023-03-21T00:49:15;8.00;99.90
48936;DHT22;34745;52.276;10.528;2023-03-21T00:51:42;8.00;99.90
48936;DHT22;34745;52.276;10.528;2023-03-21T00:54:10;7.90;99.90
48936;DHT22;34745;52.276;10.528;2023-03-21T00:56:38;8.00;99.90
48936;DHT22;34745;52.276;10.528;2023-03-21T00:59:05;7.90;99.90
48936;DHT22;34745;52.276;10.528;2023-03-21T01:01:32;7.90;99.90
48936;DHT22;34745;52.276;10.528;2023-03-21T01:04:00;7.80;99.90
48936;DHT22;34745;52.276;10.528;2023-03-21T01:06:36;7.80;99.90
48936;DHT22;34745;52.276;10.528;2023-03-21T01:09:06;7.80;99.90
48936;DHT22;34745;52.276;10.528;2023-03-21T01:11:34;7.80;99.90
48936;DHT22;34745;52.276;10.528;2023-03-21T01:14:00;7.80;99.90
48936;DHT22;34745;52.276;10.528;2023-03-21T01:16:47;7.80;99.90
48936;DHT22;34745;52.276;10.528;2023-03-21T01:19:17;7.80;99.90
48936;DHT22;34745;52.276;10.528;2023-03-21T01:21:53;7.80;99.90
48936;DHT22;34745;52.276;10.528;2023-03-21T01:24:20;7.80;99.90
48936;DHT22;34745;52.276;10.528;2023-03-21T01:26:47;7.80;99.90
48936;DHT22;34745;52.276;10.528;2023-03-21T01:29:14;7.80;99.90
48936;DHT22;34745;52.276;10.528;2023-03-21T01:31:42;7.80;99.90
48936;DHT22;34745;52.276;10.528;2023-03-21T01:34:09;7.80;99.90
48936;DHT22;34745;52.276;10.528;2023-03-21T01:36:37;7.80;99.90
48936;DHT22;34745;52.276;10.528;2023-03-21T01:39:05;7.80;99.90
48936;DHT22;34745;52.276;10.528;2023-03-21T01:41:34;7.80;99.90
48936;DHT22;34745;52.276;10.528;2023-03-21T01:44:14;7.80;99.90
48936;DHT22;34745;52.276;10.528;2023-03-21T01:46:43;7.80;99.90
48936;DHT22;34745;52.276;10.528;2023-03-21T01:49:32;7.90;99.90
48936;DHT22;34745;52.276;10.528;2023-03-21T01:52:04;7.80;99.90
48936;DHT22;34745;52.276;10.528;2023-03-21T01:54:42;7.80;99.90
48936;DHT22;34745;52.276;10.528;2023-03-21T01:57:12;7.80;99.90
48936;DHT22;34745;52.276;10.528;2023-03-21T01:59:42;7.90;99.90
48936;DHT22;34745;52.276;10.528;2023-03-21T02:02:15;7.80;99.90
48936;DHT22;34745;52.276;10.528;2023-03-21T02:04:46;7.80;99.90
48936;DHT22;34745;52.276;10.528;2023-03-21T02:07:23;7.80;99.90
48936;DHT22;34745;52.276;10.528;2023-03-21T02:09:52;7.80;99.90
48936;DHT22;34745;52.276;10.528;2023-03-21T02:12:20;7.80;99.90
48936;DHT22;34745;52.276;10.528;2023-03-21T02:14:48;7.80;99.90
48936;DHT22;34745;52.276;10.528;2023-03-21T02:17:19;7.80;99.90
48936;DHT22;34745;52.276;10.528;2023-03-21T02:20:09;7.80;99.90
48936;DHT22;34745;52.276;10.528;2023-03-21T02:22:58;7.80;99.90
48936;DHT22;34745;52.276;10.528;2023-03-21T02:28:46;7.90;99.90
48936;DHT22;34745;52.276;10.528;2023-03-21T02:31:30;7.80;99.90
48936;DHT22;34745;52.276;10.528;2023-03-21T02:34:23;7.80;99.90
48936;DHT22;34745;52.276;10.528;2023-03-21T02:37:04;7.80;99.90
48936;DHT22;34745;52.276;10.528;2023-03-21T02:39:41;7.80;99.90
48936;DHT22;34745;52.276;10.528;2023-03-21T02:42:16;7.90;99.90
48936;DHT22;34745;52.276;10.528;2023-03-21T02:44:48;7.90;99.90
48936;DHT22;34745;52.276;10.528;2023-03-21T02:47:21;7.80;99.90
48936;DHT22;34745;52.276;10.528;2023-03-21T02:49:53;7.80;99.90
48936;DHT22;34745;52.276;10.528;2023-03-21T02:52:25;7.80;99.90
48936;DHT22;34745;52.276;10.528;2023-03-21T02:55:08;7.80;99.90
48936;DHT22;34745;52.276;10.528;2023-03-21T02:57:40;7.90;99.90
48936;DHT22;34745;52.276;10.528;2023-03-21T03:00:12;7.90;99.90
48936;DHT22;34745;52.276;10.528;2023-03-21T03:02:44;7.90;99.90
48936;DHT22;34745;52.276;10.528;2023-03-21T03:05:14;8.00;99.90
48936;DHT22;34745;52.276;10.528;2023-03-21T03:08:05;8.00;99.90
48936;DHT22;34745;52.276;10.528;2023-03-21T03:10:48;7.90;99.90
48936;DHT22;34745;52.276;10.528;2023-03-21T03:13:26;8.00;99.90
48936;DHT22;34745;52.276;10.528;2023-03-21T03:16:00;8.00;99.90
48936;DHT22;34745;52.276;10.528;2023-03-21T03:18:40;7.90;99.90
48936;DHT22;34745;52.276;10.528;2023-03-21T03:21:16;8.00;99.90
48936;DHT22;34745;52.276;10.528;2023-03-21T03:23:48;8.00;99.90
48936;DHT22;34745;52.276;10.528;2023-03-21T03:26:18;8.00;99.90
48936;DHT22;34745;52.276;10.528;2023-03-21T03:28:50;8.00;99.90
48936;DHT22;34745;52.276;10.528;2023-03-21T03:31:22;8.00;99.90
48936;DHT22;34745;52.276;10.528;2023-03-21T03:33:54;8.00;99.90
48936;DHT22;34745;52.276;10.528;2023-03-21T03:36:24;8.00;99.90
48936;DHT22;34745;52.276;10.528;2023-03-21T03:39:02;8.10;99.90
48936;DHT22;34745;52.276;10.528;2023-03-21T03:41:30;8.10;99.90
48936;DHT22;34745;52.276;10.528;2023-03-21T03:44:20;8.10;99.90
48936;DHT22;34745;52.276;10.528;2023-03-21T03:46:50;8.10;99.90
48936;DHT22;34745;52.276;10.528;2023-03-21T03:49:21;8.00;99.90
48936;DHT22;34745;52.276;10.528;2023-03-21T03:51:52;8.10;99.90
48936;DHT22;34745;52.276;10.528;2023-03-21T03:54:24;8.10;99.90
48936;DHT22;34745;52.276;10.528;2023-03-21T03:56:54;8.10;99.90
48936;DHT22;34745;52.276;10.528;2023-03-21T03:59:22;8.10;99.90
48936;DHT22;34745;52.276;10.528;2023-03-21T04:01:50;8.10;99.90
48936;DHT22;34745;52.276;10.528;2023-03-21T04:04:17;8.10;99.90
48936;DHT22;34745;52.276;10.528;2023-03-21T04:06:48;8.10;99.90
48936;DHT22;34745;52.276;10.528;2023-03-21T04:09:19;8.20;99.90
48936;DHT22;34745;52.276;10.528;2023-03-21T04:11:58;8.20;99.90
48936;DHT22;34745;52.276;10.528;2023-03-21T04:14:25;8.20;99.90
48936;DHT22;34745;52.276;10.528;2023-03-21T04:17:07;8.30;99.90
48936;DHT22;34745;52.276;10.528;2023-03-21T04:19:35;8.30;99.90
48936;DHT22;34745;52.276;10.528;2023-03-21T04:22:02;8.30;99.90
48936;DHT22;34745;52.276;10.528;2023-03-21T04:24:29;8.40;99.90
48936;DHT22;34745;52.276;10.528;2023-03-21T04:27:00;8.40;99.90
48936;DHT22;34745;52.276;10.528;2023-03-21T04:29:27;8.40;99.90
48936;DHT22;34745;52.276;10.528;2023-03-21T04:31:55;8.40;99.90
48936;DHT22;34745;52.276;10.528;2023-03-21T04:34:23;8.40;99.90
48936;DHT22;34745;52.276;10.528;2023-03-21T04:36:53;8.40;99.90
48936;DHT22;34745;52.276;10.528;2023-03-21T04:39:21;8.40;99.90
48936;DHT22;34745;52.276;10.528;2023-03-21T04:41:50;8.30;99.90
48936;DHT22;34745;52.276;10.528;2023-03-21T04:44:19;8.30;99.90
48936;DHT22;34745;52.276;10.528;2023-03-21T04:46:46;8.40;99.90
48936;DHT22;34745;52.276;10.528;2023-03-21T04:49:13;8.40;99.90
48936;DHT22;34745;52.276;10.528;2023-03-21T04:51:41;8.40;99.90
48936;DHT22;34745;52.276;10.528;2023-03-21T04:54:09;8.30;99.90
48936;DHT22;34745;52.276;10.528;2023-03-21T04:56:39;8.40;99.90
48936;DHT22;34745;52.276;10.528;2023-03-21T04:59:08;8.40;99.90
48936;DHT22;34745;52.276;10.528;2023-03-21T05:01:37;8.40;99.90
48936;DHT22;34745;52.276;10.528;2023-03-21T05:04:04;8.40;99.90
48936;DHT22;34745;52.276;10.528;2023-03-21T05:06:31;8.40;99.90
48936;DHT22;34745;52.276;10.528;2023-03-21T05:08:59;8.40;99.90
48936;DHT22;34745;52.276;10.528;2023-03-21T05:11:28;8.40;99.90
48936;DHT22;34745;52.276;10.528;2023-03-21T05:13:58;8.40;99.90
48936;DHT22;34745;52.276;10.528;2023-03-21T05:16:25;8.40;99.90
48936;DHT22;34745;52.276;10.528;2023-03-21T05:18:58;8.40;99.90
48936;DHT22;34745;52.276;10.528;2023-03-21T05:21:30;8.40;99.90
48936;DHT22;34745;52.276;10.528;2023-03-21T05:24:00;8.40;99.90
48936;DHT22;34745;52.276;10.528;2023-03-21T05:26:30;8.40;99.90
48936;DHT22;34745;52.276;10.528;2023-03-21T05:28:57;8.40;99.90
48936;DHT22;34745;52.276;10.528;2023-03-21T05:31:24;8.40;99.90
48936;DHT22;34745;52.276;10.528;2023-03-21T05:33:51;8.40;99.90
48936;DHT22;34745;52.276;10.528;2023-03-21T05:36:19;8.30;99.90
48936;DHT22;34745;52.276;10.528;2023-03-21T05:38:46;8.30;99.90
48936;DHT22;34745;52.276;10.528;2023-03-21T05:41:14;8.30;99.90
48936;DHT22;34745;52.276;10.528;2023-03-21T05:43:44;8.40;99.90
48936;DHT22;34745;52.276;10.528;2023-03-21T05:46:12;8.30;99.90
48936;DHT22;34745;52.276;10.528;2023-03-21T05:48:39;8.30;99.90
48936;DHT22;34745;52.276;10.528;2023-03-21T05:51:06;8.30;99.90
48936;DHT22;34745;52.276;10.528;2023-03-21T05:53:35;8.30;99.90
48936;DHT22;34745;52.276;10.528;2023-03-21T05:56:02;8.30;99.90
48936;DHT22;34745;52.276;10.528;2023-03-21T05:58:29;8.20;99.90
48936;DHT22;34745;52.276;10.528;2023-03-21T06:00:56;8.30;99.90
48936;DHT22;34745;52.276;10.528;2023-03-21T06:03:23;8.30;99.90
48936;DHT22;34745;52.276;10.528;2023-03-21T06:05:50;8.40;99.90
48936;DHT22;34745;52.276;10.528;2023-03-21T06:08:18;8.40;99.90
48936;DHT22;34745;52.276;10.528;2023-03-21T06:10:46;8.40;99.90
48936;DHT22;34745;52.276;10.528;2023-03-21T06:13:14;8.50;99.90
48936;DHT22;34745;52.276;10.528;2023-03-21T06:15:44;8.50;99.90
48936;DHT22;34745;52.276;10.528;2023-03-21T06:18:12;8.60;99.90
48936;DHT22;34745;52.276;10.528;2023-03-21T06:20:39;8.60;99.90
48936;DHT22;34745;52.276;10.528;2023-03-21T06:23:06;8.60;99.90
48936;DHT22;34745;52.276;10.528;2023-03-21T06:25:34;8.70;99.90
48936;DHT22;34745;52.276;10.528;2023-03-21T06:28:04;8.70;99.90
48936;DHT22;34745;52.276;10.528;2023-03-21T06:30:35;8.80;99.90
48936;DHT22;34745;52.276;10.528;2023-03-21T06:33:02;8.80;99.90
48936;DHT22;34745;52.276;10.528;2023-03-21T06:35:29;8.80;99.90
48936;DHT22;34745;52.276;10.528;2023-03-21T06:37:56;8.70;99.90
48936;DHT22;34745;52.276;10.528;2023-03-21T06:40:25;8.70;99.90
48936;DHT22;34745;52.276;10.528;2023-03-21T06:42:52;8.80;99.90
48936;DHT22;34745;52.276;10.528;2023-03-21T06:45:20;8.80;99.90
48936;DHT22;34745;52.276;10.528;2023-03-21T06:47:47;8.80;99.90
48936;DHT22;34745;52.276;10.528;2023-03-21T06:50:14;8.90;99.90
48936;DHT22;34745;52.276;10.528;2023-03-21T06:52:41;8.90;99.90
48936;DHT22;34745;52.276;10.528;2023-03-21T06:55:09;9.00;99.90
48936;DHT22;34745;52.276;10.528;2023-03-21T06:57:36;9.00;99.90
48936;DHT22;34745;52.276;10.528;2023-03-21T07:00:04;9.00;99.90
48936;DHT22;34745;52.276;10.528;2023-03-21T07:02:32;9.00;99.90
48936;DHT22;34745;52.276;10.528;2023-03-21T07:05:01;9.00;99.90
48936;DHT22;34745;52.276;10.528;2023-03-21T07:07:28;9.10;99.90
48936;DHT22;34745;52.276;10.528;2023-03-21T07:09:55;9.10;99.90
48936;DHT22;34745;52.276;10.528;2023-03-21T07:12:22;9.20;99.90
48936;DHT22;34745;52.276;10.528;2023-03-21T07:14:50;9.30;99.90
48936;DHT22;34745;52.276;10.528;2023-03-21T07:17:17;9.30;99.90
48936;DHT22;34745;52.276;10.528;2023-03-21T07:19:46;9.40;99.90
48936;DHT22;34745;52.276;10.528;2023-03-21T07:22:12;9.50;99.90
48936;DHT22;34745;52.276;10.528;2023-03-21T07:24:39;9.40;99.90
48936;DHT22;34745;52.276;10.528;2023-03-21T07:27:06;9.40;99.90
48936;DHT22;34745;52.276;10.528;2023-03-21T07:29:33;9.50;99.90
48936;DHT22;34745;52.276;10.528;2023-03-21T07:32:00;9.70;99.90
48936;DHT22;34745;52.276;10.528;2023-03-21T07:34:27;9.80;99.90
48936;DHT22;34745;52.276;10.528;2023-03-21T07:37:00;10.00;99.90
48936;DHT22;34745;52.276;10.528;2023-03-21T07:39:27;10.10;99.90
48936;DHT22;34745;52.276;10.528;2023-03-21T07:41:55;10.20;99.90
48936;DHT22;34745;52.276;10.528;2023-03-21T07:44:22;10.30;99.90
48936;DHT22;34745;52.276;10.528;2023-03-21T07:46:49;10.40;99.90
48936;DHT22;34745;52.276;10.528;2023-03-21T07:49:17;10.30;99.90
48936;DHT22;34745;52.276;10.528;2023-03-21T07:51:43;10.30;99.90
48936;DHT22;34745;52.276;10.528;2023-03-21T07:54:12;10.30;99.90
48936;DHT22;34745;52.276;10.528;2023-03-21T07:56:39;10.30;99.90
48936;DHT22;34745;52.276;10.528;2023-03-21T07:59:07;10.30;99.90
48936;DHT22;34745;52.276;10.528;2023-03-21T08:01:35;10.50;99.90
48936;DHT22;34745;52.276;10.528;2023-03-21T08:04:03;10.40;99.90
48936;DHT22;34745;52.276;10.528;2023-03-21T08:06:30;10.40;99.90
48936;DHT22;34745;52.276;10.528;2023-03-21T08:08:58;10.50;99.90
48936;DHT22;34745;52.276;10.528;2023-03-21T08:11:26;10.50;99.90
48936;DHT22;34745;52.276;10.528;2023-03-21T08:13:57;10.50;99.90
48936;DHT22;34745;52.276;10.528;2023-03-21T08:16:24;10.60;99.90
48936;DHT22;34745;52.276;10.528;2023-03-21T08:18:51;10.60;99.90
48936;DHT22;34745;52.276;10.528;2023-03-21T08:21:18;10.40;99.90
48936;DHT22;34745;52.276;10.528;2023-03-21T08:23:45;10.30;99.90
48936;DHT22;34745;52.276;10.528;2023-03-21T08:26:12;10.20;99.90
48936;DHT22;34745;52.276;10.528;2023-03-21T08:28:46;10.20;99.90
48936;DHT22;34745;52.276;10.528;2023-03-21T08:31:13;10.20;99.90
48936;DHT22;34745;52.276;10.528;2023-03-21T08:33:41;10.10;99.90
48936;DHT22;34745;52.276;10.528;2023-03-21T08:36:09;10.20;99.90
48936;DHT22;34745;52.276;10.528;2023-03-21T08:38:36;10.20;99.90
48936;DHT22;34745;52.276;10.528;2023-03-21T08:41:04;10.20;99.90
48936;DHT22;34745;52.276;10.528;2023-03-21T08:43:31;10.20;99.90
48936;DHT22;34745;52.276;10.528;2023-03-21T08:45:59;10.20;99.90
48936;DHT22;34745;52.276;10.528;2023-03-21T08:48:30;10.30;99.90
48936;DHT22;34745;52.276;10.528;2023-03-21T08:50:59;10.40;99.90
48936;DHT22;34745;52.276;10.528;2023-03-21T08:53:26;10.50;99.90
48936;DHT22;34745;52.276;10.528;2023-03-21T08:55:53;10.60;99.90
48936;DHT22;34745;52.276;10.528;2023-03-21T08:58:21;10.60;99.90
48936;DHT22;34745;52.276;10.528;2023-03-21T09:00:48;10.70;99.90
48936;DHT22;34745;52.276;10.528;2023-03-21T09:03:16;10.80;99.90
48936;DHT22;34745;52.276;10.528;2023-03-21T09:05:43;10.80;99.90
48936;DHT22;34745;52.276;10.528;2023-03-21T09:08:11;10.80;99.90
48936;DHT22;34745;52.276;10.528;2023-03-21T09:10:41;10.80;99.90
48936;DHT22;34745;52.276;10.528;2023-03-21T09:13:08;10.90;99.90
48936;DHT22;34745;52.276;10.528;2023-03-21T09:15:35;10.90;99.90
48936;DHT22;34745;52.276;10.528;2023-03-21T09:18:02;11.00;99.90
48936;DHT22;34745;52.276;10.528;2023-03-21T09:20:40;11.00;99.90
48936;DHT22;34745;52.276;10.528;2023-03-21T09:23:10;11.00;99.90
48936;DHT22;34745;52.276;10.528;2023-03-21T09:25:38;10.90;99.90
48936;DHT22;34745;52.276;10.528;2023-03-21T09:28:06;10.90;99.90
48936;DHT22;34745;52.276;10.528;2023-03-21T09:30:34;10.80;99.90
48936;DHT22;34745;52.276;10.528;2023-03-21T09:33:04;10.70;99.90
48936;DHT22;34745;52.276;10.528;2023-03-21T09:35:40;10.60;99.90
48936;DHT22;34745;52.276;10.528;2023-03-21T09:38:07;10.70;99.90
48936;DHT22;34745;52.276;10.528;2023-03-21T09:40:47;10.90;99.90
48936;DHT22;34745;52.276;10.528;2023-03-21T09:43:29;10.70;99.90
48936;DHT22;34745;52.276;10.528;2023-03-21T09:46:04;10.70;99.90
48936;DHT22;34745;52.276;10.528;2023-03-21T09:48:47;10.80;99.90
48936;DHT22;34745;52.276;10.528;2023-03-21T09:51:28;10.80;99.90
48936;DHT22;34745;52.276;10.528;2023-03-21T09:54:00;10.90;99.90
48936;DHT22;34745;52.276;10.528;2023-03-21T09:56:29;10.80;99.90
48936;DHT22;34745;52.276;10.528;2023-03-21T09:58:57;10.90;99.90
48936;DHT22;34745;52.276;10.528;2023-03-21T10:01:27;11.10;99.90
48936;DHT22;34745;52.276;10.528;2023-03-21T10:03:57;11.10;99.90
48936;DHT22;34745;52.276;10.528;2023-03-21T10:06:28;10.90;99.90
48936;DHT22;34745;52.276;10.528;2023-03-21T10:08:59;11.00;99.90
48936;DHT22;34745;52.276;10.528;2023-03-21T10:11:40;11.00;99.90
48936;DHT22;34745;52.276;10.528;2023-03-21T10:14:15;11.00;99.90
48936;DHT22;34745;52.276;10.528;2023-03-21T10:16:45;11.10;99.90
48936;DHT22;34745;52.276;10.528;2023-03-21T10:19:16;11.30;99.90
48936;DHT22;34745;52.276;10.528;2023-03-21T10:21:46;11.20;99.90
48936;DHT22;34745;52.276;10.528;2023-03-21T10:24:27;11.10;99.90
48936;DHT22;34745;52.276;10.528;2023-03-21T10:26:56;11.10;99.90
48936;DHT22;34745;52.276;10.528;2023-03-21T10:29:25;11.10;99.90
48936;DHT22;34745;52.276;10.528;2023-03-21T10:31:53;11.00;99.90
48936;DHT22;34745;52.276;10.528;2023-03-21T10:34:27;11.10;99.90
48936;DHT22;34745;52.276;10.528;2023-03-21T10:36:58;11.20;99.90
48936;DHT22;34745;52.276;10.528;2023-03-21T10:39:32;11.20;99.90
48936;DHT22;34745;52.276;10.528;2023-03-21T10:42:00;11.40;99.90
48936;DHT22;34745;52.276;10.528;2023-03-21T10:44:32;11.40;99.90
48936;DHT22;34745;52.276;10.528;2023-03-21T10:47:03;11.60;99.90
48936;DHT22;34745;52.276;10.528;2023-03-21T10:49:31;11.70;99.60
48936;DHT22;34745;52.276;10.528;2023-03-21T10:52:20;11.70;76.90
48936;DHT22;34745;52.276;10.528;2023-03-21T10:54:49;11.90;57.00
48936;DHT22;34745;52.276;10.528;2023-03-21T10:57:20;12.00;46.90
48936;DHT22;34745;52.276;10.528;2023-03-21T10:59:51;12.20;40.50
48936;DHT22;34745;52.276;10.528;2023-03-21T11:02:25;12.60;25.00
48936;DHT22;34745;52.276;10.528;2023-03-21T11:04:54;12.80;1.80
48936;DHT22;34745;52.276;10.528;2023-03-21T11:07:27;12.70;1.00
48936;DHT22;34745;52.276;10.528;2023-03-21T11:09:58;12.70;1.00
48936;DHT22;34745;52.276;10.528;2023-03-21T11:12:30;12.40;3.20
48936;DHT22;34745;52.276;10.528;2023-03-21T11:15:18;12.60;5.40
48936;DHT22;34745;52.276;10.528;2023-03-21T11:17:47;12.40;1.00
48936;DHT22;34745;52.276;10.528;2023-03-21T11:20:16;12.50;1.00
48936;DHT22;34745;52.276;10.528;2023-03-21T11:22:47;12.50;1.00
48936;DHT22;34745;52.276;10.528;2023-03-21T11:25:20;12.30;1.00
48936;DHT22;34745;52.276;10.528;2023-03-21T11:27:51;12.40;2.30
48936;DHT22;34745;52.276;10.528;2023-03-21T11:30:21;12.50;1.00
48936;DHT22;34745;52.276;10.528;2023-03-21T11:32:52;12.40;4.60
48936;DHT22;34745;52.276;10.528;2023-03-21T11:35:21;12.50;1.00
48936;DHT22;34745;52.276;10.528;2023-03-21T11:37:53;12.50;1.00
48936;DHT22;34745;52.276;10.528;2023-03-21T11:40:22;12.60;1.00
48936;DHT22;34745;52.276;10.528;2023-03-21T11:42:51;12.50;1.00
48936;DHT22;34745;52.276;10.528;2023-03-21T11:45:21;12.50;1.00
48936;DHT22;34745;52.276;10.528;2023-03-21T11:47:50;12.40;1.00
48936;DHT22;34745;52.276;10.528;2023-03-21T11:50:28;12.50;1.00
48936;DHT22;34745;52.276;10.528;2023-03-21T11:53:06;12.50;1.00
48936;DHT22;34745;52.276;10.528;2023-03-21T11:55:44;12.50;1.00
48936;DHT22;34745;52.276;10.528;2023-03-21T11:58:31;12.70;1.00
48936;DHT22;34745;52.276;10.528;2023-03-21T12:01:06;12.50;1.00
48936;DHT22;34745;52.276;10.528;2023-03-21T12:03:50;12.50;9.80
48936;DHT22;34745;52.276;10.528;2023-03-21T12:06:27;12.40;29.50
48936;DHT22;34745;52.276;10.528;2023-03-21T12:09:11;12.50;32.20
48936;DHT22;34745;52.276;10.528;2023-03-21T12:11:49;12.40;24.50
48936;DHT22;34745;52.276;10.528;2023-03-21T12:14:25;12.40;35.00
48936;DHT22;34745;52.276;10.528;2023-03-21T12:17:04;12.40;28.00
48936;DHT22;34745;52.276;10.528;2023-03-21T12:19:54;12.40;52.70
48936;DHT22;34745;52.276;10.528;2023-03-21T12:22:29;12.10;92.80
48936;DHT22;34745;52.276;10.528;2023-03-21T12:25:04;12.10;99.90
48936;DHT22;34745;52.276;10.528;2023-03-21T12:27:39;12.10;99.90
48936;DHT22;34745;52.276;10.528;2023-03-21T12:30:32;12.20;99.90
48936;DHT22;34745;52.276;10.528;2023-03-21T12:33:13;12.20;95.50
48936;DHT22;34745;52.276;10.528;2023-03-21T12:36:02;12.30;99.90
48936;DHT22;34745;52.276;10.528;2023-03-21T12:38:39;12.40;76.20
48936;DHT22;34745;52.276;10.528;2023-03-21T12:41:20;12.40;85.10
48936;DHT22;34745;52.276;10.528;2023-03-21T12:43:51;12.40;92.60
48936;DHT22;34745;52.276;10.528;2023-03-21T12:46:24;12.50;99.90
48936;DHT22;34745;52.276;10.528;2023-03-21T12:48:57;12.50;80.70
48936;DHT22;34745;52.276;10.528;2023-03-21T12:51:29;12.30;81.80
48936;DHT22;34745;52.276;10.528;2023-03-21T12:54:03;12.20;97.40
48936;DHT22;34745;52.276;10.528;2023-03-21T12:56:36;12.30;96.30
48936;DHT22;34745;52.276;10.528;2023-03-21T12:59:11;12.30;85.10
48936;DHT22;34745;52.276;10.528;2023-03-21T13:01:41;12.40;99.90
48936;DHT22;34745;52.276;10.528;2023-03-21T13:04:29;12.40;99.90
48936;DHT22;34745;52.276;10.528;2023-03-21T13:06:59;12.50;99.90
48936;DHT22;34745;52.276;10.528;2023-03-21T13:09:37;12.50;99.90
48936;DHT22;34745;52.276;10.528;2023-03-21T13:12:15;12.30;99.90
48936;DHT22;34745;52.276;10.528;2023-03-21T13:14:57;12.30;99.90
48936;DHT22;34745;52.276;10.528;2023-03-21T13:17:31;12.20;99.90
48936;DHT22;34745;52.276;10.528;2023-03-21T13:20:06;12.30;99.90
48936;DHT22;34745;52.276;10.528;2023-03-21T13:22:38;12.30;99.90
48936;DHT22;34745;52.276;10.528;2023-03-21T13:25:14;12.30;99.90
48936;DHT22;34745;52.276;10.528;2023-03-21T13:27:50;12.30;99.90
48936;DHT22;34745;52.276;10.528;2023-03-21T13:30:19;12.20;99.90
48936;DHT22;34745;52.276;10.528;2023-03-21T13:32:49;12.10;99.90
48936;DHT22;34745;52.276;10.528;2023-03-21T13:35:20;12.00;99.90
48936;DHT22;34745;52.276;10.528;2023-03-21T13:37:58;11.90;99.90
48936;DHT22;34745;52.276;10.528;2023-03-21T13:40:27;11.90;99.90
48936;DHT22;34745;52.276;10.528;2023-03-21T13:42:58;11.90;99.90
48936;DHT22;34745;52.276;10.528;2023-03-21T13:45:30;11.90;99.90
48936;DHT22;34745;52.276;10.528;2023-03-21T13:48:01;11.90;99.90
48936;DHT22;34745;52.276;10.528;2023-03-21T13:50:34;11.90;99.90
48936;DHT22;34745;52.276;10.528;2023-03-21T13:56:19;11.90;99.90
48936;DHT22;34745;52.276;10.528;2023-03-21T13:58:59;11.90;99.90
48936;DHT22;34745;52.276;10.528;2023-03-21T14:01:32;11.90;99.90
48936;DHT22;34745;52.276;10.528;2023-03-21T14:04:12;11.90;99.90
48936;DHT22;34745;52.276;10.528;2023-03-21T14:06:46;12.00;99.90
48936;DHT22;34745;52.276;10.528;2023-03-21T14:09:19;11.80;99.90
48936;DHT22;34745;52.276;10.528;2023-03-21T14:11:50;11.90;99.90
48936;DHT22;34745;52.276;10.528;2023-03-21T14:14:28;11.90;99.90
48936;DHT22;34745;52.276;10.528;2023-03-21T14:16:56;12.00;99.90
48936;DHT22;34745;52.276;10.528;2023-03-21T14:19:28;12.00;99.90
48936;DHT22;34745;52.276;10.528;2023-03-21T14:21:57;12.00;99.90
48936;DHT22;34745;52.276;10.528;2023-03-21T14:24:24;11.80;99.90
48936;DHT22;34745;52.276;10.528;2023-03-21T14:26:53;11.90;99.90
48936;DHT22;34745;52.276;10.528;2023-03-21T14:29:25;11.90;99.90
48936;DHT22;34745;52.276;10.528;2023-03-21T14:31:58;11.80;99.90
48936;DHT22;34745;52.276;10.528;2023-03-21T14:34:26;11.90;99.90
48936;DHT22;34745;52.276;10.528;2023-03-21T14:36:54;11.90;99.90
48936;DHT22;34745;52.276;10.528;2023-03-21T14:39:27;11.90;99.90
48936;DHT22;34745;52.276;10.528;2023-03-21T14:42:01;11.90;99.90
48936;DHT22;34745;52.276;10.528;2023-03-21T14:44:33;11.90;99.90
48936;DHT22;34745;52.276;10.528;2023-03-21T14:47:20;11.90;99.90
48936;DHT22;34745;52.276;10.528;2023-03-21T14:49:48;11.90;99.90
48936;DHT22;34745;52.276;10.528;2023-03-21T14:52:21;11.90;99.90
48936;DHT22;34745;52.276;10.528;2023-03-21T14:54:49;11.90;99.90
48936;DHT22;34745;52.276;10.528;2023-03-21T14:57:20;11.80;99.90
48936;DHT22;34745;52.276;10.528;2023-03-21T14:59:51;11.80;99.90
48936;DHT22;34745;52.276;10.528;2023-03-21T15:02:24;11.80;99.90
48936;DHT22;34745;52.276;10.528;2023-03-21T15:04:54;11.80;99.90
48936;DHT22;34745;52.276;10.528;2023-03-21T15:07:28;11.70;99.90
48936;DHT22;34745;52.276;10.528;2023-03-21T15:09:57;11.60;99.90
48936;DHT22;34745;52.276;10.528;2023-03-21T15:12:24;11.60;99.90
48936;DHT22;34745;52.276;10.528;2023-03-21T15:14:53;11.70;99.90
48936;DHT22;34745;52.276;10.528;2023-03-21T15:17:21;11.60;99.90
48936;DHT22;34745;52.276;10.528;2023-03-21T15:19:48;11.60;99.90
48936;DHT22;34745;52.276;10.528;2023-03-21T15:22:22;11.60;99.90
48936;DHT22;34745;52.276;10.528;2023-03-21T15:24:55;11.70;99.90
48936;DHT22;34745;52.276;10.528;2023-03-21T15:27:24;11.60;99.90
48936;DHT22;34745;52.276;10.528;2023-03-21T15:29:53;11.50;99.90
48936;DHT22;34745;52.276;10.528;2023-03-21T15:32:21;11.50;99.90
48936;DHT22;34745;52.276;10.528;2023-03-21T15:34:50;11.50;99.90
48936;DHT22;34745;52.276;10.528;2023-03-21T15:37:22;11.40;99.90
48936;DHT22;34745;52.276;10.528;2023-03-21T15:39:52;11.40;99.90
48936;DHT22;34745;52.276;10.528;2023-03-21T15:42:27;11.40;99.90
48936;DHT22;34745;52.276;10.528;2023-03-21T15:44:59;11.40;99.90
48936;DHT22;34745;52.276;10.528;2023-03-21T15:47:41;11.40;99.90
48936;DHT22;34745;52.276;10.528;2023-03-21T15:50:20;11.40;99.90
48936;DHT22;34745;52.276;10.528;2023-03-21T15:52:49;11.30;99.90
48936;DHT22;34745;52.276;10.528;2023-03-21T15:55:20;11.20;99.90
48936;DHT22;34745;52.276;10.528;2023-03-21T15:57:53;11.20;99.90